createdAt,value
2022-11-08T00:00:31.222Z,35.80
2022-11-08T00:01:05.472Z,35.83
2022-11-08T00:01:34.702Z,37.55
2022-11-08T00:01:47.744Z,36.22
2022-11-08T00:02:00.379Z,35.03
2022-11-08T00:02:13.365Z,35.35
2022-11-08T00:02:26.209Z,37.17
2022-11-08T00:02:38.960Z,37.67
2022-11-08T00:02:52.676Z,34.50
2022-11-08T00:03:05.281Z,34.83
2022-11-08T00:03:17.912Z,36.63
2022-11-08T00:03:30.607Z,35.67
2022-11-08T00:03:43.127Z,37.00
2022-11-08T00:03:55.665Z,39.30
2022-11-08T00:04:11.621Z,37.20
2022-11-08T00:04:26.098Z,35.95
2022-11-08T00:04:38.992Z,36.85
2022-11-08T00:04:51.561Z,37.28
2022-11-08T00:05:23.113Z,39.17
2022-11-08T00:05:53.932Z,37.22
2022-11-08T00:06:24.782Z,35.65
2022-11-08T00:06:55.675Z,34.72
2022-11-08T00:07:29.622Z,34.63
2022-11-08T00:08:00.437Z,35.22
2022-11-08T00:08:31.195Z,37.00
2022-11-08T00:09:02.018Z,35.03
2022-11-08T00:09:33.179Z,32.70
2022-11-08T00:10:04.106Z,36.78
2022-11-08T00:10:34.834Z,35.83
2022-11-08T00:11:05.597Z,38.80
2022-11-08T00:11:36.465Z,35.60
2022-11-08T00:12:07.444Z,38.35
2022-11-08T00:12:38.922Z,42.28
2022-11-08T00:13:09.837Z,40.97
2022-11-08T00:13:40.990Z,37.95
2022-11-08T00:14:00.510Z,38.22
2022-11-08T00:14:13.076Z,36.20
2022-11-08T00:14:25.641Z,34.78
2022-11-08T00:14:38.222Z,35.60
2022-11-08T00:14:50.822Z,35.90
2022-11-08T00:15:04.637Z,36.13
2022-11-08T00:15:18.404Z,33.85
2022-11-08T00:15:34.709Z,31.58
2022-11-08T00:15:47.243Z,32.08
2022-11-08T00:16:00.769Z,31.75
2022-11-08T00:16:13.299Z,31.48
2022-11-08T00:16:26.060Z,32.95
2022-11-08T00:16:38.673Z,32.88
2022-11-08T00:16:51.274Z,31.38
2022-11-08T00:17:05.295Z,30.30
2022-11-08T00:17:19.422Z,30.48
2022-11-08T00:17:32.181Z,31.60
2022-11-08T00:17:44.944Z,30.77
2022-11-08T00:17:58.512Z,30.83
2022-11-08T00:18:11.036Z,30.70
2022-11-08T00:18:23.564Z,31.02
2022-11-08T00:18:36.114Z,31.90
2022-11-08T00:18:48.647Z,31.63
2022-11-08T00:19:01.472Z,32.25
2022-11-08T00:19:15.388Z,32.92
2022-11-08T00:19:28.968Z,31.63
2022-11-08T00:19:41.710Z,31.73
2022-11-08T00:19:54.902Z,30.92
2022-11-08T00:20:09.047Z,31.02
2022-11-08T00:20:21.690Z,32.95
2022-11-08T00:20:35.340Z,33.08
2022-11-08T00:20:47.917Z,32.90
2022-11-08T00:21:04.016Z,32.60
2022-11-08T00:21:16.617Z,30.27
2022-11-08T00:21:29.172Z,30.80
2022-11-08T00:21:41.738Z,31.92
2022-11-08T00:21:54.653Z,30.23
2022-11-08T00:22:08.218Z,29.27
2022-11-08T00:22:21.798Z,29.67
2022-11-08T00:22:34.849Z,30.00
2022-11-08T00:22:47.414Z,30.65
2022-11-08T00:23:01.021Z,29.45
2022-11-08T00:23:13.634Z,28.73
2022-11-08T00:23:26.185Z,30.77
2022-11-08T00:23:38.751Z,32.75
2022-11-08T00:23:51.465Z,33.67
2022-11-08T00:24:04.225Z,31.02
2022-11-08T00:24:16.845Z,29.95
2022-11-08T00:24:29.413Z,29.83
2022-11-08T00:24:43.565Z,29.23
2022-11-08T00:24:56.120Z,29.73
2022-11-08T00:25:10.175Z,30.13
2022-11-08T00:25:22.912Z,29.90
2022-11-08T00:25:35.502Z,29.83
2022-11-08T00:25:53.422Z,28.55
2022-11-08T00:26:07.116Z,25.38
2022-11-08T00:26:19.780Z,26.90
2022-11-08T00:26:32.325Z,26.92
2022-11-08T00:26:45.156Z,25.38
2022-11-08T00:26:57.816Z,26.33
2022-11-08T00:27:12.649Z,26.63
2022-11-08T00:27:26.996Z,29.73
2022-11-08T00:27:39.575Z,29.58
2022-11-08T00:27:52.529Z,28.35
2022-11-08T00:28:05.410Z,27.77
2022-11-08T00:28:18.221Z,26.77
2022-11-08T00:28:31.054Z,26.35
2022-11-08T00:28:43.589Z,26.30
2022-11-08T00:28:56.166Z,28.33
2022-11-08T00:29:09.832Z,29.67
2022-11-08T00:29:22.424Z,30.15
2022-11-08T00:29:36.020Z,29.08
2022-11-08T00:29:48.724Z,27.77
2022-11-08T00:30:01.356Z,27.15
2022-11-08T00:30:14.093Z,28.85
2022-11-08T00:30:27.693Z,28.13
2022-11-08T00:30:40.324Z,27.27
2022-11-08T00:30:52.877Z,28.48
2022-11-08T00:31:06.411Z,28.42
2022-11-08T00:31:19.002Z,27.83
2022-11-08T00:31:31.594Z,26.42
2022-11-08T00:31:44.830Z,25.73
2022-11-08T00:31:57.383Z,27.08
2022-11-08T00:32:13.727Z,27.77
2022-11-08T00:32:26.783Z,28.10
2022-11-08T00:32:39.386Z,27.20
2022-11-08T00:32:51.951Z,27.40
2022-11-08T00:33:04.595Z,27.08
2022-11-08T00:33:17.197Z,29.70
2022-11-08T00:33:30.819Z,28.90
2022-11-08T00:33:44.386Z,28.75
2022-11-08T00:33:56.956Z,28.05
2022-11-08T00:34:09.640Z,26.70
2022-11-08T00:34:23.567Z,27.15
2022-11-08T00:34:36.113Z,27.80
2022-11-08T00:34:48.925Z,29.58
2022-11-08T00:35:02.494Z,27.88
2022-11-08T00:35:15.206Z,28.65
2022-11-08T00:35:27.804Z,29.80
2022-11-08T00:35:40.393Z,27.88
2022-11-08T00:35:53.070Z,28.88
2022-11-08T00:36:06.417Z,30.00
2022-11-08T00:36:19.001Z,28.33
2022-11-08T00:36:31.893Z,27.58
2022-11-08T00:36:45.474Z,28.42
2022-11-08T00:36:58.035Z,29.20
2022-11-08T00:37:11.354Z,29.42
2022-11-08T00:37:24.002Z,29.88
2022-11-08T00:37:36.587Z,28.60
2022-11-08T00:37:50.195Z,28.10
2022-11-08T00:38:04.306Z,26.10
2022-11-08T00:38:17.182Z,27.77
2022-11-08T00:38:29.943Z,30.33
2022-11-08T00:38:43.188Z,28.48
2022-11-08T00:38:55.729Z,27.38
2022-11-08T00:39:09.432Z,29.35
2022-11-08T00:39:22.112Z,28.65
2022-11-08T00:39:36.131Z,26.92
2022-11-08T00:39:49.386Z,27.75
2022-11-08T00:40:01.956Z,27.10
2022-11-08T00:40:14.641Z,28.58
2022-11-08T00:40:27.221Z,27.40
2022-11-08T00:40:39.852Z,25.55
2022-11-08T00:40:53.450Z,26.73
2022-11-08T00:41:06.141Z,28.98
2022-11-08T00:41:18.718Z,29.42
2022-11-08T00:41:31.528Z,28.83
2022-11-08T00:41:44.163Z,28.20
2022-11-08T00:41:56.739Z,28.98
2022-11-08T00:42:10.334Z,30.10
2022-11-08T00:42:22.898Z,29.83
2022-11-08T00:42:35.482Z,29.10
2022-11-08T00:42:48.034Z,29.00
2022-11-08T00:43:00.610Z,29.42
2022-11-08T00:43:13.181Z,31.48
2022-11-08T00:43:26.763Z,32.35
2022-11-08T00:43:39.327Z,31.90
2022-11-08T00:43:51.890Z,32.20
2022-11-08T00:44:05.171Z,32.08
2022-11-08T00:44:17.744Z,32.28
2022-11-08T00:44:30.583Z,30.08
2022-11-08T00:44:44.137Z,29.55
2022-11-08T00:44:56.738Z,28.70
2022-11-08T00:45:09.641Z,28.00
2022-11-08T00:45:22.204Z,28.98
2022-11-08T00:45:34.789Z,29.55
2022-11-08T00:45:47.451Z,29.80
2022-11-08T00:46:01.018Z,29.02
2022-11-08T00:46:13.582Z,30.98
2022-11-08T00:46:26.420Z,30.83
2022-11-08T00:46:39.147Z,29.27
2022-11-08T00:46:52.387Z,29.00
2022-11-08T00:47:05.295Z,31.25
2022-11-08T00:47:18.893Z,31.15
2022-11-08T00:47:31.465Z,30.38
2022-11-08T00:47:44.013Z,29.92
2022-11-08T00:47:56.568Z,29.23
2022-11-08T00:48:09.161Z,33.05
2022-11-08T00:48:21.754Z,34.60
2022-11-08T00:48:34.417Z,31.25
2022-11-08T00:48:48.067Z,28.55
2022-11-08T00:49:00.659Z,28.40
2022-11-08T00:49:13.320Z,29.70
2022-11-08T00:49:27.238Z,29.30
2022-11-08T00:49:39.879Z,28.98
2022-11-08T00:49:53.456Z,29.73
2022-11-08T00:50:06.749Z,31.77
2022-11-08T00:50:19.322Z,30.83
2022-11-08T00:50:31.954Z,29.27
2022-11-08T00:50:44.533Z,32.28
2022-11-08T00:51:01.311Z,31.77
2022-11-08T00:51:13.894Z,30.60
2022-11-08T00:51:26.711Z,32.25
2022-11-08T00:51:40.293Z,34.20
2022-11-08T00:51:52.883Z,32.45
2022-11-08T00:52:05.729Z,32.00
2022-11-08T00:52:18.413Z,29.67
2022-11-08T00:52:30.947Z,28.40
2022-11-08T00:52:43.507Z,28.33
2022-11-08T00:52:57.052Z,27.83
2022-11-08T00:53:09.621Z,28.67
2022-11-08T00:53:22.218Z,30.77
2022-11-08T00:53:36.890Z,32.97
2022-11-08T00:53:49.474Z,32.55
2022-11-08T00:54:02.013Z,28.83
2022-11-08T00:54:18.140Z,28.63
2022-11-08T00:54:31.699Z,29.25
2022-11-08T00:54:44.318Z,27.77
2022-11-08T00:54:57.002Z,28.77
2022-11-08T00:55:09.609Z,29.92
2022-11-08T00:55:22.193Z,31.48
2022-11-08T00:55:34.751Z,31.17
2022-11-08T00:55:47.311Z,31.55
2022-11-08T00:56:01.827Z,29.38
2022-11-08T00:56:14.442Z,29.13
2022-11-08T00:56:27.284Z,29.42
2022-11-08T00:56:39.980Z,30.20
2022-11-08T00:56:52.672Z,30.33
2022-11-08T00:57:06.224Z,29.50
2022-11-08T00:57:18.803Z,31.15
2022-11-08T00:57:53.538Z,31.30
2022-11-08T00:58:04.709Z,31.80
2022-11-08T00:58:17.633Z,32.28
2022-11-08T00:58:30.809Z,30.98
2022-11-08T00:58:44.734Z,29.60
2022-11-08T00:58:58.383Z,30.05
2022-11-08T00:59:12.504Z,29.60
2022-11-08T00:59:25.068Z,30.00
2022-11-08T00:59:37.683Z,31.20
2022-11-08T00:59:50.269Z,32.75
2022-11-08T01:00:03.999Z,32.83
2022-11-08T01:00:17.314Z,32.10
2022-11-08T01:00:29.891Z,31.25
2022-11-08T01:00:42.520Z,30.48
2022-11-08T01:00:55.950Z,30.33
2022-11-08T01:01:10.405Z,30.77
2022-11-08T01:01:24.182Z,33.83
2022-11-08T01:01:37.259Z,33.30
2022-11-08T01:01:50.337Z,30.95
2022-11-08T01:02:03.161Z,30.85
2022-11-08T01:02:16.952Z,31.73
2022-11-08T01:02:29.749Z,33.28
2022-11-08T01:02:43.375Z,33.17
2022-11-08T01:03:10.856Z,33.90
2022-11-08T01:03:24.086Z,32.63
2022-11-08T01:03:36.651Z,32.95
2022-11-08T01:03:49.488Z,31.42
2022-11-08T01:04:02.080Z,30.52
2022-11-08T01:04:16.564Z,30.20
2022-11-08T01:04:31.501Z,30.77
2022-11-08T01:04:44.162Z,32.03
2022-11-08T01:04:56.713Z,31.00
2022-11-08T01:05:09.591Z,29.83
2022-11-08T01:05:22.183Z,29.83
2022-11-08T01:05:37.105Z,30.08
2022-11-08T01:05:52.130Z,32.20
2022-11-08T01:06:06.660Z,31.80
2022-11-08T01:06:23.330Z,30.00
2022-11-08T01:06:36.489Z,32.78
2022-11-08T01:06:49.149Z,33.15
2022-11-08T01:07:01.840Z,30.48
2022-11-08T01:07:14.429Z,29.35
2022-11-08T01:07:27.165Z,30.27
2022-11-08T01:07:39.754Z,30.02
2022-11-08T01:07:53.316Z,28.52
2022-11-08T01:08:06.107Z,30.15
2022-11-08T01:08:20.656Z,32.25
2022-11-08T01:08:33.810Z,31.05
2022-11-08T01:08:46.796Z,30.55
2022-11-08T01:09:00.570Z,30.38
2022-11-08T01:09:13.394Z,28.92
2022-11-08T01:09:25.981Z,29.67
2022-11-08T01:09:38.527Z,32.10
2022-11-08T01:09:51.097Z,32.90
2022-11-08T01:10:04.794Z,31.85
2022-11-08T01:10:17.483Z,31.90
2022-11-08T01:10:30.375Z,31.90
2022-11-08T01:10:45.343Z,32.65
2022-11-08T01:11:01.949Z,33.63
2022-11-08T01:11:17.201Z,34.50
2022-11-08T01:11:30.071Z,30.92
2022-11-08T01:11:46.435Z,30.30
2022-11-08T01:12:00.015Z,32.30
2022-11-08T01:12:12.639Z,32.58
2022-11-08T01:12:25.236Z,31.23
2022-11-08T01:12:37.774Z,30.10
2022-11-08T01:12:50.364Z,31.17
2022-11-08T01:13:03.297Z,30.88
2022-11-08T01:13:17.622Z,29.92
2022-11-08T01:13:30.736Z,30.13
2022-11-08T01:13:44.494Z,29.80
2022-11-08T01:13:58.231Z,31.23
2022-11-08T01:14:11.111Z,33.10
2022-11-08T01:14:23.683Z,33.65
2022-11-08T01:14:38.380Z,31.67
2022-11-08T01:14:51.183Z,30.77
2022-11-08T01:15:04.259Z,31.30
2022-11-08T01:15:17.141Z,32.50
2022-11-08T01:15:35.206Z,33.38
2022-11-08T01:15:48.167Z,31.65
2022-11-08T01:16:06.999Z,31.48
2022-11-08T01:16:22.984Z,30.95
2022-11-08T01:16:35.832Z,30.75
2022-11-08T01:16:48.420Z,29.50
2022-11-08T01:17:00.997Z,29.52
2022-11-08T01:17:13.571Z,30.75
2022-11-08T01:17:26.190Z,31.13
2022-11-08T01:17:39.862Z,31.73
2022-11-08T01:17:52.656Z,32.30
2022-11-08T01:18:05.321Z,31.40
2022-11-08T01:18:18.420Z,32.85
2022-11-08T01:18:31.196Z,31.35
2022-11-08T01:18:44.963Z,31.42
2022-11-08T01:18:59.158Z,31.45
2022-11-08T01:19:11.730Z,31.27
2022-11-08T01:19:24.368Z,32.38
2022-11-08T01:19:38.304Z,31.75
2022-11-08T01:19:50.853Z,30.30
2022-11-08T01:20:04.195Z,30.63
2022-11-08T01:20:17.932Z,32.97
2022-11-08T01:20:30.508Z,32.97
2022-11-08T01:20:45.371Z,31.20
2022-11-08T01:20:57.931Z,30.35
2022-11-08T01:21:11.426Z,30.25
2022-11-08T01:21:24.922Z,33.30
2022-11-08T01:21:39.045Z,31.48
2022-11-08T01:21:51.615Z,28.67
2022-11-08T01:22:04.225Z,31.00
2022-11-08T01:22:16.789Z,35.00
2022-11-08T01:22:29.353Z,33.85
2022-11-08T01:22:41.919Z,31.90
2022-11-08T01:22:54.537Z,29.92
2022-11-08T01:23:07.759Z,30.27
2022-11-08T01:23:21.362Z,29.77
2022-11-08T01:23:34.603Z,31.23
2022-11-08T01:23:47.713Z,30.50
2022-11-08T01:24:00.529Z,29.83
2022-11-08T01:24:13.106Z,30.27
2022-11-08T01:24:25.697Z,30.17
2022-11-08T01:24:39.473Z,31.80
2022-11-08T01:24:52.029Z,32.92
2022-11-08T01:25:05.281Z,33.47
2022-11-08T01:25:17.973Z,33.15
2022-11-08T01:25:30.579Z,31.60
2022-11-08T01:25:44.873Z,31.20
2022-11-08T01:26:01.701Z,33.03
2022-11-08T01:26:18.731Z,31.58
2022-11-08T01:26:31.365Z,29.83
2022-11-08T01:26:43.948Z,31.05
2022-11-08T01:26:56.488Z,33.30
2022-11-08T01:27:09.087Z,32.83
2022-11-08T01:27:21.786Z,31.63
2022-11-08T01:27:35.331Z,30.10
2022-11-08T01:27:47.908Z,30.70
2022-11-08T01:28:00.492Z,31.95
2022-11-08T01:28:13.310Z,33.45
2022-11-08T01:28:25.857Z,32.33
2022-11-08T01:28:39.133Z,31.60
2022-11-08T01:28:52.219Z,31.42
2022-11-08T01:29:05.809Z,30.38
2022-11-08T01:29:18.387Z,30.95
2022-11-08T01:29:30.996Z,30.70
2022-11-08T01:29:43.583Z,29.95
2022-11-08T01:29:56.156Z,29.67
2022-11-08T01:30:09.968Z,30.13
2022-11-08T01:30:22.580Z,28.92
2022-11-08T01:30:36.691Z,28.08
2022-11-08T01:30:50.270Z,29.13
2022-11-08T01:31:06.639Z,31.85
2022-11-08T01:31:21.781Z,32.42
2022-11-08T01:31:34.392Z,31.05
2022-11-08T01:31:47.995Z,30.90
2022-11-08T01:32:00.575Z,31.13
2022-11-08T01:32:13.133Z,30.15
2022-11-08T01:32:25.721Z,30.60
2022-11-08T01:32:38.316Z,32.47
2022-11-08T01:32:50.879Z,31.52
2022-11-08T01:33:03.928Z,30.40
2022-11-08T01:33:17.495Z,30.70
2022-11-08T01:33:30.166Z,33.03
2022-11-08T01:33:48.425Z,33.33
2022-11-08T01:34:04.605Z,31.60
2022-11-08T01:34:17.188Z,30.13
2022-11-08T01:34:29.773Z,32.53
2022-11-08T01:34:43.696Z,32.08
2022-11-08T01:34:56.297Z,30.35
2022-11-08T01:35:09.647Z,30.00
2022-11-08T01:35:22.227Z,31.15
2022-11-08T01:35:37.678Z,32.45
2022-11-08T01:35:50.750Z,32.28
2022-11-08T01:36:06.135Z,31.20
2022-11-08T01:36:20.837Z,29.52
2022-11-08T01:36:33.403Z,30.42
2022-11-08T01:36:46.955Z,31.52
2022-11-08T01:36:59.519Z,31.65
2022-11-08T01:37:12.125Z,29.58
2022-11-08T01:37:24.703Z,30.17
2022-11-08T01:37:37.287Z,30.52
2022-11-08T01:37:51.477Z,30.08
2022-11-08T01:38:06.214Z,31.20
2022-11-08T01:38:19.134Z,32.42
2022-11-08T01:38:31.909Z,31.88
2022-11-08T01:38:45.671Z,30.67
2022-11-08T01:38:58.288Z,29.50
2022-11-08T01:39:11.354Z,29.77
2022-11-08T01:39:23.984Z,32.22
2022-11-08T01:39:36.573Z,32.40
2022-11-08T01:39:49.146Z,31.50
2022-11-08T01:40:01.784Z,31.10
2022-11-08T01:40:14.362Z,30.30
2022-11-08T01:40:28.103Z,30.52
2022-11-08T01:40:45.113Z,28.98
2022-11-08T01:40:57.672Z,30.40
2022-11-08T01:41:12.453Z,28.83
2022-11-08T01:41:28.101Z,28.30
2022-11-08T01:41:40.696Z,30.73
2022-11-08T01:41:53.277Z,29.75
2022-11-08T01:42:06.083Z,29.90
2022-11-08T01:42:26.916Z,31.13
2022-11-08T01:42:39.522Z,32.17
2022-11-08T01:42:53.062Z,33.45
2022-11-08T01:43:38.039Z,31.80
2022-11-08T01:43:51.746Z,32.92
2022-11-08T01:44:04.346Z,32.00
2022-11-08T01:44:17.600Z,29.63
2022-11-08T01:44:31.185Z,30.35
2022-11-08T01:44:57.540Z,29.67
2022-11-08T01:45:11.863Z,29.13
2022-11-08T01:46:13.286Z,29.05
2022-11-08T01:46:42.166Z,28.90
2022-11-08T01:46:55.034Z,30.08
2022-11-08T01:47:07.557Z,29.92
2022-11-08T01:47:20.108Z,29.45
2022-11-08T01:47:32.762Z,30.35
2022-11-08T01:47:45.312Z,30.27
2022-11-08T01:47:57.950Z,30.15
2022-11-08T01:48:11.681Z,30.80
2022-11-08T01:48:26.866Z,31.50
2022-11-08T01:48:43.972Z,33.08
2022-11-08T01:49:04.410Z,31.90
2022-11-08T01:49:34.597Z,28.42
2022-11-08T01:49:51.237Z,29.73
2022-11-08T01:50:07.833Z,31.08
2022-11-08T01:50:20.529Z,30.30
2022-11-08T01:50:33.119Z,29.23
2022-11-08T01:50:45.901Z,28.70
2022-11-08T01:51:00.583Z,29.23
2022-11-08T01:51:17.423Z,29.42
2022-11-08T01:51:34.248Z,29.10
2022-11-08T01:51:52.451Z,29.73
2022-11-08T01:52:12.975Z,30.90
2022-11-08T01:52:30.364Z,30.80
2022-11-08T01:52:47.943Z,30.83
2022-11-08T01:53:00.624Z,29.23
2022-11-08T01:53:13.303Z,28.48
2022-11-08T01:53:28.135Z,29.42
2022-11-08T01:53:40.935Z,30.05
2022-11-08T01:53:53.988Z,30.92
2022-11-08T01:54:11.714Z,30.30
2022-11-08T01:54:31.590Z,30.75
2022-11-08T01:54:52.673Z,29.83
2022-11-08T01:55:11.707Z,31.42
2022-11-08T01:55:28.043Z,31.65
2022-11-08T01:55:40.960Z,29.90
2022-11-08T01:55:54.425Z,29.23
2022-11-08T01:56:09.009Z,30.52
2022-11-08T01:56:21.609Z,29.90
2022-11-08T01:56:36.212Z,29.17
2022-11-08T01:56:49.434Z,31.08
2022-11-08T01:57:05.390Z,31.60
2022-11-08T01:57:21.571Z,31.33
2022-11-08T01:57:41.565Z,30.10
2022-11-08T01:57:59.090Z,28.38
2022-11-08T01:58:15.652Z,31.27
2022-11-08T01:58:33.089Z,31.20
2022-11-08T01:58:48.973Z,28.48
2022-11-08T01:59:06.838Z,28.98
2022-11-08T01:59:19.728Z,27.83
2022-11-08T01:59:35.424Z,28.92
2022-11-08T01:59:50.958Z,27.77
2022-11-08T02:00:08.759Z,25.05
2022-11-08T02:00:21.689Z,27.52
2022-11-08T02:00:37.532Z,29.00
2022-11-08T02:00:53.503Z,29.00
2022-11-08T02:01:07.328Z,29.35
2022-11-08T02:01:20.229Z,28.52
2022-11-08T02:01:33.010Z,28.77
2022-11-08T02:01:47.498Z,31.05
2022-11-08T02:02:00.418Z,31.55
2022-11-08T02:02:14.728Z,32.42
2022-11-08T02:02:27.741Z,32.05
2022-11-08T02:02:43.263Z,29.10
2022-11-08T02:02:58.510Z,28.40
2022-11-08T02:03:17.132Z,27.38
2022-11-08T02:03:33.371Z,28.33
2022-11-08T02:03:47.084Z,28.92
2022-11-08T02:04:00.777Z,28.90
2022-11-08T02:04:15.337Z,27.45
2022-11-08T02:04:27.953Z,25.17
2022-11-08T02:04:42.511Z,26.65
2022-11-08T02:04:57.535Z,30.25
2022-11-08T02:05:24.969Z,30.05
2022-11-08T02:05:38.551Z,29.02
2022-11-08T02:05:51.468Z,28.25
2022-11-08T02:06:04.785Z,29.05
2022-11-08T02:06:18.132Z,28.45
2022-11-08T02:06:36.431Z,28.00
2022-11-08T02:06:50.204Z,27.15
2022-11-08T02:07:05.026Z,25.90
2022-11-08T02:07:18.024Z,26.92
2022-11-08T02:07:34.006Z,27.40
2022-11-08T02:07:46.627Z,25.70
2022-11-08T02:08:02.978Z,26.27
2022-11-08T02:08:22.576Z,29.27
2022-11-08T02:08:38.757Z,28.17
2022-11-08T02:08:51.638Z,27.30
2022-11-08T02:09:08.487Z,28.20
2022-11-08T02:09:22.117Z,28.67
2022-11-08T02:09:38.712Z,27.77
2022-11-08T02:09:51.314Z,27.13
2022-11-08T02:10:04.476Z,27.50
2022-11-08T02:10:17.621Z,26.33
2022-11-08T02:10:34.815Z,26.15
2022-11-08T02:10:51.929Z,26.05
2022-11-08T02:11:06.316Z,26.23
2022-11-08T02:11:19.259Z,27.58
2022-11-08T02:11:33.716Z,29.30
2022-11-08T02:11:48.227Z,30.40
2022-11-08T02:12:00.902Z,28.65
2022-11-08T02:12:16.806Z,27.88
2022-11-08T02:12:30.155Z,27.23
2022-11-08T02:12:43.322Z,27.23
2022-11-08T02:12:56.681Z,27.63
2022-11-08T02:13:14.930Z,28.45
2022-11-08T02:13:31.906Z,27.83
2022-11-08T02:13:44.542Z,28.08
2022-11-08T02:13:58.054Z,27.42
2022-11-08T02:14:11.160Z,28.52
2022-11-08T02:14:23.918Z,30.05
2022-11-08T02:14:37.263Z,27.95
2022-11-08T02:14:50.829Z,24.85
2022-11-08T02:15:03.884Z,25.35
2022-11-08T02:15:17.935Z,26.92
2022-11-08T02:15:30.584Z,27.90
2022-11-08T02:15:43.599Z,27.58
2022-11-08T02:15:56.760Z,27.73
2022-11-08T02:16:13.730Z,27.60
2022-11-08T02:16:26.300Z,26.45
2022-11-08T02:16:38.846Z,29.08
2022-11-08T02:16:51.681Z,28.15
2022-11-08T02:17:04.700Z,25.85
2022-11-08T02:17:17.436Z,26.02
2022-11-08T02:17:30.031Z,26.17
2022-11-08T02:17:43.769Z,27.83
2022-11-08T02:17:56.460Z,28.48
2022-11-08T02:18:09.510Z,27.10
2022-11-08T02:18:25.437Z,27.20
2022-11-08T02:18:38.418Z,33.10
2022-11-08T02:18:50.999Z,33.03
2022-11-08T02:19:05.301Z,31.70
2022-11-08T02:19:27.318Z,28.92
2022-11-08T02:19:42.916Z,25.50
2022-11-08T02:19:56.843Z,27.15
2022-11-08T02:20:10.664Z,27.45
2022-11-08T02:20:23.283Z,27.33
2022-11-08T02:20:35.991Z,30.42
2022-11-08T02:21:02.205Z,30.83
2022-11-08T02:21:20.337Z,27.83
2022-11-08T02:21:41.647Z,27.95
2022-11-08T02:21:58.471Z,26.02
2022-11-08T02:22:20.074Z,24.95
2022-11-08T02:22:40.698Z,26.70
2022-11-08T02:23:00.489Z,26.38
2022-11-08T02:23:20.922Z,26.15
2022-11-08T02:23:44.692Z,25.58
2022-11-08T02:24:00.616Z,28.80
2022-11-08T02:24:14.346Z,26.95
2022-11-08T02:24:27.160Z,25.13
2022-11-08T02:24:40.144Z,24.75
2022-11-08T02:24:52.901Z,25.15
2022-11-08T02:25:06.863Z,26.13
2022-11-08T02:25:20.631Z,28.38
2022-11-08T02:25:33.523Z,27.45
2022-11-08T02:25:46.749Z,27.30
2022-11-08T02:25:59.341Z,25.95
2022-11-08T02:26:13.007Z,25.20
2022-11-08T02:26:29.957Z,24.48
2022-11-08T02:26:44.702Z,26.58
2022-11-08T02:26:59.567Z,27.30
2022-11-08T02:27:13.798Z,24.38
2022-11-08T02:27:26.396Z,25.35
2022-11-08T02:27:38.978Z,27.80
2022-11-08T02:27:51.567Z,26.63
2022-11-08T02:28:04.472Z,25.83
2022-11-08T02:28:18.351Z,25.48
2022-11-08T02:28:37.775Z,24.45
2022-11-08T02:28:51.155Z,22.58
2022-11-08T02:29:41.120Z,23.75
2022-11-08T02:29:54.903Z,26.60
2022-11-08T02:30:08.698Z,28.67
2022-11-08T02:30:21.787Z,28.90
2022-11-08T02:30:34.966Z,26.30
2022-11-08T02:30:47.578Z,22.85
2022-11-08T02:31:00.154Z,22.98
2022-11-08T02:31:16.302Z,24.42
2022-11-08T02:31:28.953Z,25.30
2022-11-08T02:31:41.722Z,25.05
2022-11-08T02:31:54.537Z,25.63
2022-11-08T02:32:07.482Z,26.38
2022-11-08T02:32:20.205Z,24.65
2022-11-08T02:32:39.249Z,24.02
2022-11-08T02:32:51.842Z,25.40
2022-11-08T02:33:15.046Z,26.10
2022-11-08T02:33:27.629Z,26.75
2022-11-08T02:33:40.739Z,25.92
2022-11-08T02:33:54.298Z,27.15
2022-11-08T02:34:07.005Z,27.10
2022-11-08T02:34:23.604Z,26.48
2022-11-08T02:34:41.791Z,26.70
2022-11-08T02:34:58.253Z,26.55
2022-11-08T02:35:15.672Z,26.17
2022-11-08T02:35:28.760Z,27.48
2022-11-08T02:35:41.853Z,28.38
2022-11-08T02:35:56.432Z,27.65
2022-11-08T02:36:11.675Z,26.42
2022-11-08T02:36:24.868Z,25.75
2022-11-08T02:36:37.465Z,24.92
2022-11-08T02:36:50.237Z,23.42
2022-11-08T02:37:05.318Z,24.05
2022-11-08T02:37:20.163Z,25.65
2022-11-08T02:37:33.201Z,24.65
2022-11-08T02:37:46.692Z,24.42
2022-11-08T02:37:59.277Z,24.70
2022-11-08T02:38:12.079Z,23.73
2022-11-08T02:38:27.223Z,24.63
2022-11-08T02:38:44.440Z,24.13
2022-11-08T02:38:57.922Z,22.77
2022-11-08T02:39:10.503Z,24.10
2022-11-08T02:39:23.163Z,26.30
2022-11-08T02:39:35.757Z,27.50
2022-11-08T02:39:48.333Z,25.65
2022-11-08T02:40:01.900Z,25.70
2022-11-08T02:40:14.758Z,24.55
2022-11-08T02:40:27.321Z,25.45
2022-11-08T02:40:46.982Z,24.50
2022-11-08T02:40:59.570Z,23.48
2022-11-08T02:41:12.463Z,25.35
2022-11-08T02:41:25.022Z,27.75
2022-11-08T02:41:37.601Z,27.30
2022-11-08T02:41:50.222Z,25.25
2022-11-08T02:42:04.215Z,22.90
2022-11-08T02:42:18.684Z,24.20
2022-11-08T02:42:31.298Z,25.92
2022-11-08T02:42:44.030Z,24.65
2022-11-08T02:42:56.606Z,24.10
2022-11-08T02:43:09.184Z,24.27
2022-11-08T02:43:24.002Z,25.70
2022-11-08T02:43:36.616Z,26.23
2022-11-08T02:43:49.240Z,25.23
2022-11-08T02:44:01.784Z,25.02
2022-11-08T02:44:14.365Z,25.10
2022-11-08T02:44:26.949Z,24.58
2022-11-08T02:44:39.544Z,24.35
2022-11-08T02:44:53.176Z,23.60
2022-11-08T02:45:07.848Z,23.55
2022-11-08T02:45:20.446Z,24.23
2022-11-08T02:45:32.999Z,24.15
2022-11-08T02:45:45.928Z,23.02
2022-11-08T02:45:59.478Z,23.65
2022-11-08T02:46:13.084Z,24.55
2022-11-08T02:46:25.729Z,24.40
2022-11-08T02:46:38.355Z,24.80
2022-11-08T02:46:50.914Z,24.95
2022-11-08T02:47:03.534Z,25.58
2022-11-08T02:47:16.384Z,24.88
2022-11-08T02:47:30.044Z,23.75
2022-11-08T02:47:42.631Z,24.38
2022-11-08T02:47:55.188Z,25.33
2022-11-08T02:48:08.270Z,24.55
2022-11-08T02:48:21.264Z,24.58
2022-11-08T02:48:34.018Z,25.70
2022-11-08T02:48:46.672Z,26.52
2022-11-08T02:48:59.246Z,27.85
2022-11-08T02:49:12.846Z,28.65
2022-11-08T02:49:25.435Z,29.95
2022-11-08T02:49:38.043Z,31.42
2022-11-08T02:49:50.937Z,28.33
2022-11-08T02:50:05.022Z,26.10
2022-11-08T02:50:17.721Z,27.23
2022-11-08T02:50:30.295Z,27.30
2022-11-08T02:50:42.878Z,26.27
2022-11-08T02:50:55.480Z,27.42
2022-11-08T02:51:08.099Z,27.55
2022-11-08T02:51:20.677Z,26.58
2022-11-08T02:51:33.290Z,25.75
2022-11-08T02:51:46.853Z,28.08
2022-11-08T02:51:59.415Z,29.30
2022-11-08T02:52:12.123Z,28.52
2022-11-08T02:52:24.774Z,26.65
2022-11-08T02:52:37.374Z,25.23
2022-11-08T02:52:49.989Z,24.40
2022-11-08T02:53:02.951Z,27.55
2022-11-08T02:53:16.728Z,30.25
2022-11-08T02:53:29.331Z,28.60
2022-11-08T02:53:43.488Z,26.50
2022-11-08T02:53:56.075Z,26.33
2022-11-08T02:54:08.655Z,26.88
2022-11-08T02:54:21.699Z,30.05
2022-11-08T02:54:34.580Z,29.67
2022-11-08T02:54:48.131Z,28.13
2022-11-08T02:55:00.746Z,26.65
2022-11-08T02:55:13.486Z,24.98
2022-11-08T02:55:26.096Z,24.67
2022-11-08T02:55:38.851Z,25.58
2022-11-08T02:55:51.527Z,26.45
2022-11-08T02:56:04.524Z,25.58
2022-11-08T02:56:18.098Z,25.15
2022-11-08T02:56:30.766Z,24.95
2022-11-08T02:56:43.350Z,25.50
2022-11-08T02:56:55.915Z,27.10
2022-11-08T02:57:08.680Z,27.60
2022-11-08T02:57:21.268Z,25.95
2022-11-08T02:57:34.855Z,23.90
2022-11-08T02:57:47.392Z,24.48
2022-11-08T02:58:00.566Z,25.38
2022-11-08T02:58:13.436Z,25.70
2022-11-08T02:58:27.949Z,25.80
2022-11-08T02:58:40.526Z,27.23
2022-11-08T02:58:53.128Z,25.48
2022-11-08T02:59:07.263Z,23.50
2022-11-08T02:59:20.285Z,23.42
2022-11-08T02:59:32.922Z,22.38
2022-11-08T02:59:45.485Z,24.65
2022-11-08T02:59:58.067Z,26.88
2022-11-08T03:00:12.283Z,28.27
2022-11-08T03:00:24.936Z,25.33
2022-11-08T03:00:38.719Z,23.17
2022-11-08T03:00:51.284Z,23.50
2022-11-08T03:01:03.967Z,23.88
2022-11-08T03:01:17.232Z,23.70
2022-11-08T03:01:30.012Z,23.77
2022-11-08T03:01:43.101Z,24.92
2022-11-08T03:01:57.004Z,24.90
2022-11-08T03:02:09.782Z,24.38
2022-11-08T03:02:22.606Z,24.85
2022-11-08T03:02:35.328Z,26.40
2022-11-08T03:02:51.412Z,28.75
2022-11-08T03:03:04.886Z,28.65
2022-11-08T03:03:17.446Z,25.77
2022-11-08T03:03:31.108Z,24.55
2022-11-08T03:03:43.727Z,27.30
2022-11-08T03:03:56.586Z,26.15
2022-11-08T03:04:09.162Z,24.88
2022-11-08T03:04:21.838Z,25.17
2022-11-08T03:04:34.476Z,24.23
2022-11-08T03:04:48.051Z,23.45
2022-11-08T03:05:01.062Z,23.77
2022-11-08T03:05:13.632Z,24.92